Terminal Aerodrome Forecast
Issued by NWS

Home | Current Version | Previous Version | Text Only | Print | Product List | Glossary On
Versions: 1 2 3 4 5 6 7 8 9 10 11 12 13 14 15 16 17 18 19 20 21 22 23 24
336
FTUS46 KLOX 112325
TAFLAX
TAF
KLAX 112325Z 1200/1306 27010KT P6SM SCT250
     FM120400 VRB03KT P6SM BKN250
     FM120800 00000KT 6SM BCFG SCT001 BKN250
     FM121400 08004KT P6SM BKN250
     FM122000 27010KT P6SM BKN250
     FM130400 VRB03KT P6SM BKN250=

USA.gov is the U.S. government's official web portal to all federal, state and local government web resources and services.